Time;durP1;ratioP1;P1;durP2;ratioP2;P2;SDS_P1;SDS_P2;PMS_P1;PMS_P2;Temp;Humidity;BMP_temperature;BMP_pressure;BME280_temperature;BME280_humidity;BME280_pressure;Samples;Min_cycle;Max_cycle;Signal;HPM_P1;HPM_P2
2023/11/17 00:01:43;;;;;;;19.35;10.10;;;;;;;4.94;100.00;101228.94;5006703;28;20037;-79
2023/11/17 00:04:09;;;;;;;23.48;11.23;;;;;;;4.94;100.00;101234.09;5003802;28;20409;-79
2023/11/17 00:06:34;;;;;;;22.25;11.00;;;;;;;4.93;100.00;101240.16;5014494;28;20040;-79
2023/11/17 00:09:01;;;;;;;25.45;10.68;;;;;;;4.89;100.00;101242.09;5001677;28;20025;-79
2023/11/17 00:11:27;;;;;;;19.17;10.43;;;;;;;4.86;100.00;101240.59;5005709;28;20062;-79
2023/11/17 00:13:53;;;;;;;22.65;10.90;;;;;;;4.86;100.00;101232.88;5010319;28;20033;-80
2023/11/17 00:16:19;;;;;;;19.77;10.80;;;;;;;4.86;100.00;101245.72;5009511;28;20119;-79
2023/11/17 00:18:45;;;;;;;19.65;10.80;;;;;;;4.85;100.00;101249.22;4993061;28;20053;-79
2023/11/17 00:21:11;;;;;;;20.38;10.50;;;;;;;4.84;100.00;101252.72;4991524;28;20053;-79
2023/11/17 00:23:39;;;;;;;23.13;10.38;;;;;;;4.83;100.00;101255.41;5004075;28;20030;-79
2023/11/17 00:26:05;;;;;;;21.83;10.75;;;;;;;4.82;100.00;101262.28;5007085;28;20492;-79
2023/11/17 00:28:39;;;;;;;24.08;10.50;;;;;;;4.82;100.00;101259.72;5001529;28;20076;-80
2023/11/17 00:31:09;;;;;;;19.65;10.15;;;;;;;4.82;100.00;101269.16;4995462;28;20587;-79
2023/11/17 00:33:35;;;;;;;19.50;10.07;;;;;;;4.78;100.00;101268.53;4993309;28;20034;-79
2023/11/17 00:36:00;;;;;;;24.08;9.68;;;;;;;4.76;100.00;101274.72;5006293;28;20043;-79
2023/11/17 00:38:31;;;;;;;27.33;10.68;;;;;;;4.74;100.00;101282.53;5004974;28;20033;-79
2023/11/17 00:40:59;;;;;;;20.63;10.38;;;;;;;4.71;100.00;101280.19;4996334;28;20029;-79
2023/11/17 00:43:25;;;;;;;19.48;11.38;;;;;;;4.68;100.00;101288.91;4996739;28;20030;-79
2023/11/17 00:45:57;;;;;;;19.85;10.43;;;;;;;4.64;100.00;101284.94;4995466;28;20033;-79
2023/11/17 00:48:23;;;;;;;20.20;10.88;;;;;;;4.64;100.00;101289.25;5018207;28;20041;-81
2023/11/17 00:50:50;;;;;;;20.65;10.80;;;;;;;4.63;100.00;101288.44;5007702;28;20044;-80
2023/11/17 00:53:17;;;;;;;20.92;10.88;;;;;;;4.62;100.00;101293.69;5007997;28;20025;-81
2023/11/17 00:55:42;;;;;;;23.48;11.82;;;;;;;4.59;100.00;101304.97;5006966;28;20117;-79
2023/11/17 00:58:08;;;;;;;23.58;11.18;;;;;;;4.60;100.00;101300.66;4997225;28;21021;-81
2023/11/17 01:00:34;;;;;;;22.40;11.35;;;;;;;4.54;100.00;101311.34;4990310;28;20448;-80
2023/11/17 01:03:00;;;;;;;26.95;11.63;;;;;;;4.49;100.00;101312.47;5004954;28;20505;-81
2023/11/17 01:05:25;;;;;;;24.05;11.95;;;;;;;4.46;100.00;101311.84;5011903;28;20037;-81
2023/11/17 01:07:52;;;;;;;28.88;13.75;;;;;;;4.45;100.00;101323.06;5008956;28;20033;-79
2023/11/17 01:10:17;;;;;;;23.52;11.40;;;;;;;4.38;100.00;101327.78;4988312;28;20500;-81
2023/11/17 01:12:43;;;;;;;25.08;11.77;;;;;;;4.36;100.00;101328.81;4995026;28;20025;-79
2023/11/17 01:15:10;;;;;;;25.38;12.63;;;;;;;4.35;100.00;101334.88;5001734;28;20036;-79
2023/11/17 01:17:35;;;;;;;27.63;12.43;;;;;;;4.34;100.00;101341.75;4993954;28;20061;-81
2023/11/17 01:20:02;;;;;;;24.25;12.38;;;;;;;4.36;100.00;101344.22;4999039;28;20424;-79
2023/11/17 01:22:27;;;;;;;24.75;12.00;;;;;;;4.34;100.00;101349.47;4992122;28;20048;-80
2023/11/17 01:24:53;;;;;;;26.42;11.73;;;;;;;4.31;100.00;101351.41;4982425;28;20029;-80
2023/11/17 01:27:19;;;;;;;22.23;11.50;;;;;;;4.26;100.00;101356.88;4986752;28;20570;-80
2023/11/17 01:29:45;;;;;;;25.00;11.38;;;;;;;4.24;100.00;101356.16;4990393;28;20034;-80
2023/11/17 01:32:11;;;;;;;21.88;11.13;;;;;;;4.23;100.00;101357.88;5001877;28;20037;-80
2023/11/17 01:34:37;;;;;;;26.38;11.77;;;;;;;4.19;100.00;101356.44;4995486;28;20061;-80
2023/11/17 01:37:03;;;;;;;26.08;12.40;;;;;;;4.22;100.00;101365.66;5015110;28;20040;-79
2023/11/17 01:39:29;;;;;;;25.08;13.05;;;;;;;4.18;100.00;101366.78;5004065;28;20054;-80
2023/11/17 01:41:55;;;;;;;34.85;13.02;;;;;;;4.15;100.00;101365.25;4985858;28;20017;-79
2023/11/17 01:44:21;;;;;;;25.52;13.13;;;;;;;4.16;100.00;101369.47;4993040;28;20088;-81
2023/11/17 01:46:47;;;;;;;28.67;12.70;;;;;;;4.12;100.00;101370.59;5000447;28;20094;-81
2023/11/17 01:49:12;;;;;;;24.20;12.30;;;;;;;4.12;100.00;101377.47;4993848;28;20277;-79
2023/11/17 01:51:39;;;;;;;28.55;13.27;;;;;;;4.09;100.00;101381.88;5005541;28;20044;-80
2023/11/17 01:54:05;;;;;;;28.00;12.70;;;;;;;4.08;100.00;101384.53;4989575;28;20033;-81
2023/11/17 01:56:32;;;;;;;28.13;13.82;;;;;;;4.08;100.00;101390.50;4992775;28;20052;-82
2023/11/17 01:58:58;;;;;;;26.90;13.80;;;;;;;4.07;100.00;101388.88;4985526;28;20157;-80
2023/11/17 02:01:25;;;;;;;27.25;13.45;;;;;;;4.04;100.00;101386.47;4991708;28;20042;-80
2023/11/17 02:03:52;;;;;;;27.55;13.50;;;;;;;4.04;100.00;101394.19;5003100;28;20077;-82
2023/11/17 02:06:40;;;;;;;26.95;13.80;;;;;;;4.02;100.00;101385.75;5003304;28;20441;-81
2023/11/17 02:09:29;;;;;;;35.67;14.02;;;;;;;4.02;100.00;101383.19;5010791;28;20092;-81
2023/11/17 02:12:14;;;;;;;25.40;14.07;;;;;;;3.99;100.00;101391.09;5010451;28;20045;-80
2023/11/17 02:14:45;;;;;;;31.20;14.20;;;;;;;3.98;100.00;101383.50;4988865;28;20571;-80
2023/11/17 02:17:15;;;;;;;28.45;13.93;;;;;;;3.97;100.00;101389.53;4989907;28;20032;-81
2023/11/17 02:19:43;;;;;;;27.05;13.68;;;;;;;3.96;100.00;101383.59;4983419;28;20096;-80
2023/11/17 02:22:19;;;;;;;26.75;13.80;;;;;;;3.96;100.00;101380.22;4993742;28;20489;-80
2023/11/17 02:25:32;;;;;;;28.02;14.52;;;;;;;3.95;100.00;101386.25;5006645;28;20037;-80
2023/11/17 02:28:41;;;;;;;29.73;13.60;;;;;;;3.90;100.00;101404.53;4894253;29;20036;-80
2023/11/17 02:31:18;;;;;;;30.63;14.25;;;;;;;3.88;100.00;101393.50;5005164;28;20036;-80
2023/11/17 02:33:48;;;;;;;30.27;14.15;;;;;;;3.84;100.00;101395.47;5000303;28;20063;-80
2023/11/17 02:36:18;;;;;;;29.23;14.00;;;;;;;3.83;100.00;101387.88;4999821;28;20100;-81
2023/11/17 02:39:05;;;;;;;29.73;13.93;;;;;;;3.80;100.00;101382.94;5004658;28;20037;-80
2023/11/17 02:41:37;;;;;;;26.52;12.77;;;;;;;3.80;100.00;101388.06;4983219;28;20125;-81
2023/11/17 02:44:04;;;;;;;32.70;14.90;;;;;;;3.79;100.00;101391.56;4991451;28;20041;-80
2023/11/17 02:46:34;;;;;;;33.30;14.77;;;;;;;3.77;100.00;101383.97;4983575;28;20056;-80
2023/11/17 02:49:04;;;;;;;35.30;14.98;;;;;;;3.75;100.00;101388.38;4991337;28;20061;-80
2023/11/17 02:51:37;;;;;;;39.00;16.30;;;;;;;3.75;100.00;101390.94;5008426;28;20720;-80
2023/11/17 02:54:13;;;;;;;31.67;14.60;;;;;;;3.72;100.00;101396.25;4996398;28;20087;-80
2023/11/17 02:56:39;;;;;;;25.40;13.75;;;;;;;3.70;100.00;101395.53;4985467;28;20056;-81
2023/11/17 02:59:09;;;;;;;33.05;14.68;;;;;;;3.67;100.00;101388.84;5012389;28;20037;-80
2023/11/17 03:01:39;;;;;;;30.60;14.85;;;;;;;3.64;100.00;101391.59;5006791;28;20037;-80
2023/11/17 03:04:15;;;;;;;26.75;13.93;;;;;;;3.64;100.00;101393.34;5009960;28;20037;-80
2023/11/17 03:06:47;;;;;;;28.20;13.85;;;;;;;3.64;100.00;101393.34;4997294;28;20038;-81
2023/11/17 03:09:14;;;;;;;24.75;13.07;;;;;;;3.59;100.00;101400.50;4987852;28;20052;-80
2023/11/17 03:11:41;;;;;;;30.15;13.23;;;;;;;3.55;100.00;101401.63;5000441;28;20074;-81
2023/11/17 03:14:08;;;;;;;25.10;13.35;;;;;;;3.54;100.00;101408.47;4993110;28;20030;-81
2023/11/17 03:16:35;;;;;;;23.88;12.50;;;;;;;3.51;100.00;101404.34;4984722;28;20053;-80
2023/11/17 03:19:01;;;;;;;28.80;13.32;;;;;;;3.46;100.00;101403.81;4986471;28;20070;-81
2023/11/17 03:21:28;;;;;;;25.35;13.30;;;;;;;3.45;100.00;101406.50;4980592;28;20417;-80
2023/11/17 03:23:53;;;;;;;22.75;11.48;;;;;;;3.45;100.00;101406.50;4995260;28;20048;-80
2023/11/17 03:26:19;;;;;;;21.65;12.15;;;;;;;3.43;100.00;101410.91;4997918;28;20042;-79
2023/11/17 03:28:45;;;;;;;26.13;13.13;;;;;;;3.40;100.00;101405.94;4995297;28;20049;-80
2023/11/17 03:31:13;;;;;;;21.90;12.82;;;;;;;3.39;100.00;101419.66;5001443;28;20040;-81
2023/11/17 03:33:43;;;;;;;26.13;13.18;;;;;;;3.36;100.00;101415.56;4985471;28;20076;-81
2023/11/17 03:36:13;;;;;;;23.10;12.57;;;;;;;3.34;100.00;101426.84;4976882;28;20460;-80
2023/11/17 03:38:40;;;;;;;21.17;12.07;;;;;;;3.34;100.00;101426.84;5001279;28;20129;-80
2023/11/17 03:41:05;;;;;;;23.85;13.13;;;;;;;3.39;100.00;101429.94;4989840;28;20034;-81
2023/11/17 03:43:31;;;;;;;20.73;12.02;;;;;;;3.35;100.00;101426.72;4989416;28;20038;-81
2023/11/17 03:45:56;;;;;;;21.85;11.98;;;;;;;3.32;100.00;101421.81;4998258;28;20042;-80
2023/11/17 03:48:22;;;;;;;19.13;11.07;;;;;;;3.30;100.00;101427.03;4991660;28;20022;-80
2023/11/17 03:50:49;;;;;;;20.63;11.73;;;;;;;3.33;100.00;101420.06;5000055;28;20493;-82
2023/11/17 03:53:15;;;;;;;29.58;15.25;;;;;;;3.30;100.00;101427.03;5000210;28;20037;-81
2023/11/17 03:55:44;;;;;;;63.50;30.00;;;;;;;3.30;100.00;101426.22;4985424;28;20026;-80
2023/11/17 03:58:09;;;;;;;101.07;44.00;;;;;;;3.29;100.00;101427.91;5000475;28;20038;-80
2023/11/17 04:00:35;;;;;;;91.25;37.95;;;;;;;3.30;100.00;101419.31;4989547;28;20117;-81
2023/11/17 04:03:04;;;;;;;65.95;30.95;;;;;;;3.27;100.00;101421.25;4993177;28;20037;-80
2023/11/17 04:05:32;;;;;;;76.97;33.60;;;;;;;3.27;100.00;101434.88;4990611;28;20030;-81
2023/11/17 04:07:57;;;;;;;105.72;44.28;;;;;;;3.25;100.00;101423.09;4989619;28;20045;-80
2023/11/17 04:10:24;;;;;;;87.78;37.80;;;;;;;3.25;100.00;101426.47;4983721;28;20445;-80
2023/11/17 04:12:53;;;;;;;47.80;21.67;;;;;;;3.26;100.00;101424.75;4990086;28;20034;-80
2023/11/17 04:15:18;;;;;;;27.80;15.10;;;;;;;3.27;100.00;101434.06;4999532;28;20118;-79
2023/11/17 04:17:44;;;;;;;25.48;13.90;;;;;;;3.25;100.00;101431.59;5002265;28;20026;-80
2023/11/17 04:20:14;;;;;;;24.88;13.10;;;;;;;3.26;100.00;101435.00;4985880;28;20034;-80
2023/11/17 04:22:40;;;;;;;24.83;14.50;;;;;;;3.23;100.00;101437.75;4990261;28;20034;-80
2023/11/17 04:25:06;;;;;;;42.40;22.15;;;;;;;3.24;100.00;101439.38;5000602;28;20037;-80
2023/11/17 04:27:31;;;;;;;65.22;30.33;;;;;;;3.25;100.00;101439.28;4997203;28;20516;-80
2023/11/17 04:29:57;;;;;;;38.67;18.65;;;;;;;3.22;100.00;101446.34;4998005;28;20038;-79
2023/11/17 04:32:22;;;;;;;37.33;18.02;;;;;;;3.25;100.00;101451.28;4995554;28;20030;-79
2023/11/17 04:34:49;;;;;;;30.85;15.25;;;;;;;3.22;100.00;101444.63;4985863;28;20034;-80
2023/11/17 04:37:14;;;;;;;28.42;14.80;;;;;;;3.20;100.00;101450.72;4996814;28;20038;-80
2023/11/17 04:39:40;;;;;;;23.92;13.05;;;;;;;3.18;100.00;101450.81;4998191;28;20042;-80
2023/11/17 04:42:05;;;;;;;24.70;13.23;;;;;;;3.18;100.00;101450.00;4990266;28;20492;-80
2023/11/17 04:44:33;;;;;;;25.65;13.98;;;;;;;3.20;100.00;101451.56;4995506;28;20049;-80
2023/11/17 04:46:59;;;;;;;20.17;12.25;;;;;;;3.23;100.00;101441.13;4999185;28;20033;-80
2023/11/17 04:49:24;;;;;;;25.27;14.05;;;;;;;3.19;100.00;101439.66;4997831;28;20038;-80
2023/11/17 04:51:50;;;;;;;22.17;13.60;;;;;;;3.20;100.00;101445.59;5001540;28;20021;-80
2023/11/17 04:54:15;;;;;;;23.20;13.30;;;;;;;3.19;100.00;101438.84;4987470;28;20409;-80
2023/11/17 04:56:41;;;;;;;18.00;11.38;;;;;;;3.18;100.00;101447.44;4984266;28;20037;-80
2023/11/17 04:59:13;;;;;;;22.52;12.60;;;;;;;3.18;100.00;101444.88;4994910;28;20125;-80
2023/11/17 05:01:38;;;;;;;22.73;13.07;;;;;;;3.21;100.00;101447.25;4997865;28;20109;-80
2023/11/17 05:04:04;;;;;;;22.13;12.35;;;;;;;3.23;100.00;101446.25;4985217;28;20123;-80
2023/11/17 05:06:29;;;;;;;38.63;19.98;;;;;;;3.25;100.00;101449.53;4981198;28;20587;-79
2023/11/17 05:08:55;;;;;;;29.52;15.18;;;;;;;3.25;100.00;101452.09;4988240;28;20052;-80
2023/11/17 05:11:27;;;;;;;29.17;15.48;;;;;;;3.28;100.00;101448.53;4983918;28;20037;-80
2023/11/17 05:13:52;;;;;;;25.60;13.68;;;;;;;3.28;100.00;101444.25;4986496;28;20556;-80
2023/11/17 05:16:18;;;;;;;25.55;14.35;;;;;;;3.29;100.00;101450.19;4995930;28;20049;-80
2023/11/17 05:18:43;;;;;;;27.20;15.07;;;;;;;3.33;100.00;101440.56;4995300;28;20045;-80
2023/11/17 05:21:09;;;;;;;24.17;14.43;;;;;;;3.30;100.00;101444.97;5000668;28;20030;-80
2023/11/17 05:23:34;;;;;;;31.73;15.90;;;;;;;3.30;100.00;101444.97;4988862;28;20042;-80
2023/11/17 05:26:01;;;;;;;25.58;14.23;;;;;;;3.28;100.00;101444.25;5000536;28;20045;-80
2023/11/17 05:28:27;;;;;;;30.40;14.88;;;;;;;3.28;100.00;101448.53;5003037;28;20025;-80
2023/11/17 05:30:55;;;;;;;24.50;14.02;;;;;;;3.27;100.00;101449.44;4994012;28;20133;-80
2023/11/17 05:33:21;;;;;;;22.50;13.88;;;;;;;3.28;100.00;101449.38;4982363;28;20070;-80
2023/11/17 05:35:47;;;;;;;26.25;14.00;;;;;;;3.31;100.00;101453.47;4995616;28;20109;-80
2023/11/17 05:38:13;;;;;;;26.92;13.90;;;;;;;3.31;100.00;101451.75;4983655;28;20563;-79
2023/11/17 05:40:40;;;;;;;32.65;16.25;;;;;;;3.33;100.00;101451.63;4988585;28;20123;-80
2023/11/17 05:43:06;;;;;;;26.60;14.80;;;;;;;3.29;100.00;101461.25;4988975;28;20056;-80
2023/11/17 05:45:32;;;;;;;28.65;16.35;;;;;;;3.33;100.00;101461.88;4981102;28;20077;-80
2023/11/17 05:47:57;;;;;;;44.70;15.63;;;;;;;3.29;100.00;101463.81;4995866;28;20092;-79
2023/11/17 05:50:22;;;;;;;25.65;15.27;;;;;;;3.31;100.00;101467.13;4995249;28;20123;-79
2023/11/17 05:52:48;;;;;;;28.02;15.52;;;;;;;3.36;100.00;101468.59;4997019;28;20084;-80
2023/11/17 05:55:16;;;;;;;28.95;15.73;;;;;;;3.36;100.00;101466.03;4994231;28;20050;-80
2023/11/17 05:57:43;;;;;;;32.63;16.00;;;;;;;3.37;100.00;101472.78;4995186;28;20084;-79
2023/11/17 06:00:12;;;;;;;38.15;16.27;;;;;;;3.35;100.00;101466.94;5001070;28;20034;-80
2023/11/17 06:02:38;;;;;;;28.00;16.05;;;;;;;3.36;100.00;101464.28;5003198;28;20637;-79
2023/11/17 06:05:03;;;;;;;31.80;17.63;;;;;;;3.31;100.00;101469.69;4992992;28;20038;-80
2023/11/17 06:07:29;;;;;;;34.67;16.67;;;;;;;3.31;100.00;101471.41;4993057;28;20027;-80
2023/11/17 06:09:54;;;;;;;42.92;18.27;;;;;;;3.37;100.00;101470.22;4990297;28;20035;-80
2023/11/17 06:12:20;;;;;;;38.85;19.35;;;;;;;3.38;100.00;101470.13;4983368;28;20276;-80
2023/11/17 06:14:45;;;;;;;35.72;17.52;;;;;;;3.33;100.00;101473.91;4993676;28;20038;-80
2023/11/17 06:17:11;;;;;;;29.20;16.38;;;;;;;3.32;100.00;101470.50;5001210;28;20038;-79
2023/11/17 06:19:38;;;;;;;53.83;18.65;;;;;;;3.37;100.00;101483.03;4991217;28;20102;-79
2023/11/17 06:22:09;;;;;;;48.00;22.55;;;;;;;3.34;100.00;101491.75;4992498;28;20026;-79
2023/11/17 06:24:35;;;;;;;54.33;28.52;;;;;;;3.34;100.00;101494.31;4983772;28;20038;-80
2023/11/17 06:27:00;;;;;;;94.15;45.95;;;;;;;3.36;100.00;101486.53;4986451;28;20120;-80
2023/11/17 06:29:26;;;;;;;45.63;21.60;;;;;;;3.39;100.00;101486.34;4989158;28;20041;-79
2023/11/17 06:31:52;;;;;;;42.63;22.02;;;;;;;3.35;100.00;101490.81;4995697;28;20037;-80
2023/11/17 06:34:18;;;;;;;41.63;19.65;;;;;;;3.56;100.00;101487.88;4994510;28;20060;-79
2023/11/17 06:36:44;;;;;;;34.03;17.48;;;;;;;3.41;100.00;101490.47;4978610;28;20037;-80
2023/11/17 06:39:14;;;;;;;54.22;18.58;;;;;;;3.37;100.00;101480.47;4995622;28;20027;-79
2023/11/17 06:41:47;;;;;;;46.38;20.27;;;;;;;3.39;100.00;101492.31;4987577;28;20412;-79
2023/11/17 06:44:13;;;;;;;49.05;22.38;;;;;;;3.41;100.00;101479.38;4982403;28;20205;-82
2023/11/17 06:46:42;;;;;;;65.72;22.30;;;;;;;3.43;100.00;101487.81;5004957;28;20689;-80
2023/11/17 06:49:18;;;;;;;59.75;20.95;;;;;;;3.43;100.00;101483.50;5000116;28;20026;-79
2023/11/17 06:51:44;;;;;;;51.53;20.42;;;;;;;3.41;100.00;101489.63;4995621;28;20041;-79
2023/11/17 06:54:13;;;;;;;55.00;23.98;;;;;;;3.45;100.00;101486.00;4996791;28;20054;-79
2023/11/17 06:56:42;;;;;;;60.92;22.08;;;;;;;3.48;100.00;101485.78;4994283;28;20039;-79
2023/11/17 06:59:11;;;;;;;60.83;24.27;;;;;;;3.49;100.00;101490.81;4996219;28;20084;-78
2023/11/17 07:01:37;;;;;;;54.05;22.92;;;;;;;3.43;100.00;101496.31;4996883;28;20154;-80
2023/11/17 07:04:06;;;;;;;56.50;23.05;;;;;;;3.42;100.00;101484.41;4994939;28;20030;-80
2023/11/17 07:06:33;;;;;;;90.60;25.05;;;;;;;3.41;100.00;101490.47;4981219;28;20034;-78
2023/11/17 07:09:03;;;;;;;58.70;25.25;;;;;;;3.44;100.00;101492.00;4993827;28;20034;-80
2023/11/17 07:11:32;;;;;;;54.35;23.95;;;;;;;3.39;100.00;101489.75;4999365;28;20030;-79
2023/11/17 07:14:01;;;;;;;57.22;22.30;;;;;;;3.37;100.00;101493.28;5001166;28;20056;-79
2023/11/17 07:16:28;;;;;;;60.65;24.17;;;;;;;3.49;100.00;101492.56;4989466;28;20038;-79
2023/11/17 07:18:53;;;;;;;55.85;24.95;;;;;;;3.44;100.00;101497.16;4997293;28;20111;-78
2023/11/17 07:21:19;;;;;;;65.63;28.83;;;;;;;3.44;100.00;101497.16;4988019;28;20046;-80
2023/11/17 07:23:45;;;;;;;57.95;24.75;;;;;;;3.56;100.00;101495.56;4982323;28;20036;-78
2023/11/17 07:26:20;;;;;;;56.15;22.05;;;;;;;3.51;100.00;101498.44;4989098;28;20042;-81
2023/11/17 07:28:46;;;;;;;60.35;24.35;;;;;;;3.45;100.00;101506.50;5010698;28;20157;-80
2023/11/17 07:31:17;;;;;;;55.42;24.48;;;;;;;3.45;100.00;101503.94;5002162;28;20456;-79
2023/11/17 07:33:44;;;;;;;61.50;23.58;;;;;;;3.49;100.00;101506.22;5004455;28;20042;-80
2023/11/17 07:36:10;;;;;;;57.30;25.45;;;;;;;3.55;100.00;101514.47;4999505;28;20034;-80
2023/11/17 07:38:39;;;;;;;64.20;26.10;;;;;;;3.57;100.00;101516.00;5004829;28;20034;-80
2023/11/17 07:41:05;;;;;;;61.50;26.38;;;;;;;3.64;100.00;101511.34;5001620;28;20194;-79
2023/11/17 07:43:31;;;;;;;75.50;27.88;;;;;;;3.69;100.00;101524.69;5003459;28;20649;-79
2023/11/17 07:45:57;;;;;;;66.93;26.95;;;;;;;3.63;100.00;101519.94;5019750;28;20027;-80
2023/11/17 07:48:23;;;;;;;70.35;26.83;;;;;;;3.58;100.00;101527.91;4998580;28;20564;-80
2023/11/17 07:50:52;;;;;;;59.40;24.63;;;;;;;3.56;100.00;101526.34;4986914;28;20038;-80
2023/11/17 07:53:18;;;;;;;67.30;26.50;;;;;;;3.60;100.00;101538.91;4989418;28;20049;-79
2023/11/17 07:55:44;;;;;;;75.88;27.48;;;;;;;3.66;100.00;101541.09;4992063;28;20409;-80
2023/11/17 07:58:11;;;;;;;73.47;26.75;;;;;;;3.67;100.00;101540.19;4988792;28;20044;-79
2023/11/17 08:00:37;;;;;;;61.75;25.63;;;;;;;3.65;100.00;101554.81;4995345;28;20042;-79
2023/11/17 08:03:02;;;;;;;73.63;29.10;;;;;;;3.66;100.00;101553.09;5001651;28;20050;-80
2023/11/17 08:05:28;;;;;;;74.82;28.95;;;;;;;3.70;100.00;101557.13;4997309;28;20038;-80
2023/11/17 08:07:54;;;;;;;71.97;29.42;;;;;;;3.72;100.00;101555.28;4987876;28;20081;-79
2023/11/17 08:10:20;;;;;;;70.50;30.40;;;;;;;3.72;100.00;101562.16;5001194;28;20049;-80
2023/11/17 08:12:46;;;;;;;75.30;28.63;;;;;;;3.75;100.00;101561.97;4997458;28;20480;-80
2023/11/17 08:15:13;;;;;;;80.50;29.95;;;;;;;3.79;100.00;101563.44;4988182;28;20030;-80
2023/11/17 08:17:38;;;;;;;76.20;29.40;;;;;;;3.80;100.00;101565.09;4992889;28;20125;-79
2023/11/17 08:20:10;;;;;;;83.95;29.33;;;;;;;3.96;100.00;101575.25;4985124;28;20077;-78
2023/11/17 08:22:36;;;;;;;79.53;29.35;;;;;;;3.88;100.00;101570.56;4996038;28;20046;-80
2023/11/17 08:25:03;;;;;;;80.93;29.15;;;;;;;3.82;100.00;101576.91;4997752;28;20087;-79
2023/11/17 08:27:28;;;;;;;88.05;30.23;;;;;;;3.84;100.00;101574.25;4985093;28;20038;-79
2023/11/17 08:29:54;;;;;;;79.68;30.48;;;;;;;3.79;100.00;101569.41;5003523;28;20409;-79
2023/11/17 08:32:19;;;;;;;84.05;30.40;;;;;;;3.86;100.00;101577.53;5002983;28;20108;-80
2023/11/17 08:34:46;;;;;;;82.95;30.98;;;;;;;3.84;100.00;101574.25;4992693;28;20619;-81
2023/11/17 08:37:12;;;;;;;78.55;29.10;;;;;;;3.86;100.00;101572.41;4999178;28;20054;-80
2023/11/17 08:39:38;;;;;;;76.47;29.75;;;;;;;3.88;100.00;101575.69;4998074;28;20049;-80
2023/11/17 08:42:04;;;;;;;73.85;29.95;;;;;;;3.95;100.00;101573.59;4999911;28;20572;-80
2023/11/17 08:44:29;;;;;;;75.90;30.27;;;;;;;3.92;100.00;101576.34;5003083;28;20397;-80
2023/11/17 08:46:55;;;;;;;73.72;27.80;;;;;;;3.94;100.00;101566.81;5000935;28;20029;-80
2023/11/17 08:49:23;;;;;;;79.90;30.40;;;;;;;4.10;100.00;101572.66;4991993;28;20037;-80
2023/11/17 08:51:49;;;;;;;71.50;28.25;;;;;;;4.00;100.00;101566.44;4991652;28;20026;-80
2023/11/17 08:54:16;;;;;;;72.47;28.00;;;;;;;3.95;100.00;101574.41;4995571;28;20038;-81
2023/11/17 08:56:43;;;;;;;74.80;28.95;;;;;;;3.94;100.00;101579.63;5004397;28;20116;-80
2023/11/17 08:59:08;;;;;;;71.63;29.52;;;;;;;3.94;100.00;101565.06;4994486;28;20030;-80
2023/11/17 09:01:33;;;;;;;71.25;28.48;;;;;;;3.93;100.00;101568.56;4988349;28;20030;-81
2023/11/17 09:03:59;;;;;;;75.85;30.45;;;;;;;3.97;100.00;101569.19;4996978;28;20034;-80
2023/11/17 09:06:24;;;;;;;76.22;30.17;;;;;;;4.05;100.00;101566.97;5000800;28;20045;-79
2023/11/17 09:08:50;;;;;;;80.55;31.10;;;;;;;4.12;100.00;101567.41;4992623;28;20103;-79
2023/11/17 09:11:16;;;;;;;72.88;28.73;;;;;;;4.12;100.00;101570.81;4990490;28;20038;-80
2023/11/17 09:13:42;;;;;;;72.15;29.55;;;;;;;4.16;100.00;101577.38;4999228;28;20145;-80
2023/11/17 09:16:08;;;;;;;69.60;28.65;;;;;;;4.17;100.00;101579.06;4998767;28;20038;-80
2023/11/17 09:18:35;;;;;;;76.93;30.40;;;;;;;4.23;100.00;101580.41;5016192;28;20070;-80
2023/11/17 09:21:05;;;;;;;77.35;31.10;;;;;;;4.26;100.00;101575.91;5000626;28;20094;-80
2023/11/17 09:23:34;;;;;;;78.57;31.77;;;;;;;4.21;100.00;101575.38;4990958;28;20192;-81
2023/11/17 09:26:02;;;;;;;80.55;31.80;;;;;;;4.26;100.00;101586.19;5000934;28;20069;-79
2023/11/17 09:28:28;;;;;;;80.20;31.40;;;;;;;4.22;100.00;101586.44;5000704;28;20045;-80
2023/11/17 09:30:54;;;;;;;82.63;31.77;;;;;;;4.26;100.00;101590.50;4995969;28;20056;-81
2023/11/17 09:33:22;;;;;;;74.22;29.58;;;;;;;4.38;100.00;101594.03;4994544;28;20497;-80
2023/11/17 09:35:48;;;;;;;68.43;29.30;;;;;;;4.36;100.00;101604.41;4981143;28;20044;-80
2023/11/17 09:38:16;;;;;;;76.85;30.45;;;;;;;4.40;100.00;101602.47;4990600;28;20073;-80
2023/11/17 09:40:41;;;;;;;72.00;29.60;;;;;;;4.35;100.00;101605.34;4987224;28;20060;-79
2023/11/17 09:43:20;;;;;;;71.63;28.98;;;;;;;4.34;100.00;101601.13;4995977;28;20053;-80
2023/11/17 09:45:47;;;;;;;78.68;29.70;;;;;;;4.34;100.00;101593.41;5005997;28;20568;-79
2023/11/17 09:48:14;;;;;;;81.13;30.65;;;;;;;4.32;100.00;101597.00;5000082;28;20037;-79
2023/11/17 09:50:41;;;;;;;71.53;28.35;;;;;;;4.36;100.00;101599.28;4996788;28;20038;-80
2023/11/17 09:53:09;;;;;;;68.45;29.15;;;;;;;4.31;100.00;101603.03;4986884;28;20038;-80
2023/11/17 09:55:37;;;;;;;70.03;28.83;;;;;;;4.41;100.00;101610.09;4998423;28;20042;-80
2023/11/17 09:58:06;;;;;;;71.43;29.17;;;;;;;4.33;100.00;101602.03;4991123;28;20475;-79
2023/11/17 10:00:33;;;;;;;76.82;30.15;;;;;;;4.35;100.00;101601.94;4987030;28;20042;-80
2023/11/17 10:03:01;;;;;;;74.70;30.23;;;;;;;4.34;100.00;101601.13;4992802;28;20041;-79
2023/11/17 10:05:29;;;;;;;81.50;30.85;;;;;;;4.46;100.00;101607.22;4997941;28;20053;-80
2023/11/17 10:08:07;;;;;;;70.07;28.45;;;;;;;4.41;100.00;101601.56;4988968;28;20030;-79
2023/11/17 10:10:36;;;;;;;80.18;30.38;;;;;;;4.40;100.00;101600.72;4988613;28;20528;-80
2023/11/17 10:13:03;;;;;;;80.45;30.42;;;;;;;4.42;100.00;101604.00;5001984;28;20033;-80
2023/11/17 10:15:31;;;;;;;80.20;32.58;;;;;;;4.49;100.00;101604.47;4994751;28;20505;-81
2023/11/17 10:18:01;;;;;;;81.75;32.22;;;;;;;4.58;100.00;101611.59;5012804;28;20050;-80
2023/11/17 10:20:27;;;;;;;74.68;29.05;;;;;;;4.56;100.00;101621.16;4990933;28;20042;-79
2023/11/17 10:22:54;;;;;;;80.53;29.27;;;;;;;4.54;100.00;101625.56;4985179;28;20046;-80
2023/11/17 10:25:21;;;;;;;69.45;27.92;;;;;;;4.56;100.00;101630.56;4985357;28;20096;-80
2023/11/17 10:27:51;;;;;;;66.32;27.33;;;;;;;4.57;100.00;101632.22;4991263;28;20030;-80
2023/11/17 10:30:18;;;;;;;86.88;33.10;;;;;;;4.70;100.00;101635.69;4984792;28;20520;-80
2023/11/17 10:32:58;;;;;;;88.15;32.38;;;;;;;4.69;100.00;101634.03;4991032;28;20036;-80
2023/11/17 10:35:26;;;;;;;84.18;31.13;;;;;;;4.70;100.00;101630.53;4996989;28;20440;-80
2023/11/17 10:37:55;;;;;;;81.90;31.13;;;;;;;4.74;100.00;101634.56;4999294;28;20037;-79
2023/11/17 10:40:28;;;;;;;81.13;30.30;;;;;;;4.82;100.00;101641.78;4986938;28;20050;-81
2023/11/17 10:43:14;;;;;;;91.22;32.30;;;;;;;4.89;100.00;101630.19;4983076;28;20034;-80
2023/11/17 10:45:46;;;;;;;92.90;32.38;;;;;;;4.87;100.00;101642.31;4999889;28;20101;-81
2023/11/17 10:48:13;;;;;;;97.10;32.70;;;;;;;4.92;100.00;101639.47;4984973;28;20113;-81
2023/11/17 10:50:43;;;;;;;87.50;33.00;;;;;;;4.95;100.00;101646.97;5000699;28;20030;-81
2023/11/17 10:53:24;;;;;;;89.00;31.70;;;;;;;5.04;100.00;101646.38;4991626;28;20077;-80
2023/11/17 10:55:57;;;;;;;92.35;33.58;;;;;;;5.04;100.00;101648.94;4989141;28;20042;-81
2023/11/17 10:58:24;;;;;;;94.47;35.50;;;;;;;5.05;100.00;101648.03;4996151;28;20429;-80
2023/11/17 11:00:50;;;;;;;88.25;33.10;;;;;;;5.11;100.00;101649.38;4995807;28;20035;-80
2023/11/17 11:03:18;;;;;;;96.78;35.75;;;;;;;5.11;100.00;101650.19;4995157;28;20026;-80
2023/11/17 11:05:46;;;;;;;94.88;35.63;;;;;;;5.06;100.00;101645.34;4982504;28;20046;-81
2023/11/17 11:08:18;;;;;;;87.80;33.40;;;;;;;5.11;100.00;101639.91;4994729;28;20041;-80
2023/11/17 11:10:53;;;;;;;98.05;34.30;;;;;;;5.12;100.00;101635.59;4985186;28;20043;-80
2023/11/17 11:13:28;;;;;;;108.05;36.67;;;;;;;5.13;100.00;101635.50;4983447;28;20394;-81